Bluff Estates, South Carolina
Current Conditions -  °F | °C
As of 8:53 AM on Saturday 20 Dec 2014 (Local Time) from KCUB Reporting Station
Light Rain Light Rain  
Wind Chill: 43°   Ceiling: 6500
Heat Index: 45°   Visibility: 7mi
Dew Point: 41°   Wind: 5mph
Humidity: 86%   Direction: 60°ENE
Pressure: 30.23"   Gusts: NA
Location:  33.9488°N, 80.9462°W
Report Text: KCUB 201353Z AUTO 06004KT 7SM -RA BKN065 OVC090 07/05 A3023 RMK AO2 RAE20B49 SLP236 P0001 T00720050
Loading
Personal Weather Stations






























Interactive Weather Map New forecast layout! Learn more

10-Day Weather Forecast

Advertisements
Track Severe Weather on mobile